createdAt,value
2018-06-08T00:31:38.790Z,0.30
2018-06-08T00:34:06.579Z,0.30
2018-06-08T00:39:01.602Z,2.10
2018-06-08T00:46:23.729Z,1.70
2018-06-08T00:48:51.541Z,1.20
2018-06-08T00:51:19.556Z,1.55
2018-06-08T00:53:47.278Z,2.35
2018-06-08T00:58:47.942Z,1.40
2018-06-08T01:01:15.610Z,0.85
2018-06-08T01:03:43.487Z,0.45
2018-06-08T01:06:11.199Z,0.50
2018-06-08T01:08:39.013Z,0.80
2018-06-08T01:11:06.891Z,1.10
2018-06-08T01:13:34.624Z,1.50
2018-06-08T01:16:02.438Z,1.55
2018-06-08T01:20:57.456Z,1.60
2018-06-08T01:47:57.551Z,1.70
2018-06-08T01:50:25.744Z,1.90
2018-06-08T01:52:53.833Z,1.63
2018-06-08T02:02:43.273Z,2.90
2018-06-08T02:05:11.214Z,2.30
2018-06-08T02:07:39.024Z,1.70
2018-06-08T02:10:06.825Z,1.10
2018-06-08T02:12:34.639Z,0.80
2018-06-08T02:15:02.451Z,0.70
2018-06-08T02:17:30.495Z,0.80
2018-06-08T02:19:58.402Z,1.25
2018-06-08T02:22:26.221Z,1.25
2018-06-08T02:24:54.071Z,0.90
2018-06-08T02:32:16.158Z,0.40
2018-06-08T02:34:43.997Z,0.50
2018-06-08T02:37:11.859Z,0.30
2018-06-08T02:39:39.683Z,0.35
2018-06-08T02:42:07.443Z,0.40
2018-06-08T02:47:02.553Z,0.30
2018-06-08T02:49:30.358Z,0.30
2018-06-08T02:51:58.161Z,0.30
2018-06-08T02:54:25.901Z,0.50
2018-06-08T02:56:53.711Z,0.40
2018-06-08T02:59:21.583Z,0.47
2018-06-08T03:01:49.480Z,0.50
2018-06-08T03:04:17.145Z,0.30
2018-06-08T03:06:44.825Z,0.37
2018-06-08T03:09:12.629Z,0.30
2018-06-08T03:11:40.355Z,0.50
2018-06-08T03:14:08.133Z,0.40
2018-06-08T03:16:35.825Z,0.40
2018-06-08T03:19:03.636Z,0.50
2018-06-08T03:21:31.378Z,0.50
2018-06-08T03:26:26.458Z,0.30
2018-06-08T03:28:54.238Z,0.40
2018-06-08T03:31:22.070Z,0.40
2018-06-08T03:33:49.861Z,0.30
2018-06-08T03:36:17.832Z,0.67
2018-06-08T03:38:45.653Z,0.53
2018-06-08T03:41:13.520Z,0.40
2018-06-08T03:43:41.295Z,0.30
2018-06-08T03:46:09.132Z,0.10
2018-06-08T03:48:36.887Z,0.23
2018-06-08T03:51:05.021Z,0.10
2018-06-08T03:53:32.906Z,0.20
2018-06-08T03:56:00.782Z,0.40
2018-06-08T03:58:28.545Z,0.20
2018-06-08T04:00:56.442Z,0.30
2018-06-08T04:03:24.217Z,0.30
2018-06-08T04:05:52.111Z,0.30
2018-06-08T04:08:19.966Z,0.30
2018-06-08T04:10:47.812Z,0.40
2018-06-08T04:13:15.655Z,0.30
2018-06-08T04:15:43.529Z,0.30
2018-06-08T04:18:11.419Z,0.33
2018-06-08T04:20:39.186Z,0.17
2018-06-08T04:23:21.574Z,0.20
2018-06-08T04:25:49.559Z,0.10
2018-06-08T04:28:17.195Z,0.30
2018-06-08T04:30:45.089Z,0.23
2018-06-08T04:33:12.904Z,0.40
2018-06-08T04:35:40.539Z,0.30
2018-06-08T04:38:08.221Z,0.30
2018-06-08T04:40:36.426Z,0.23
2018-06-08T04:43:04.057Z,0.20
2018-06-08T04:45:31.910Z,0.37
2018-06-08T04:47:59.883Z,0.20
2018-06-08T04:50:27.547Z,0.30
2018-06-08T04:52:55.274Z,0.20
2018-06-08T04:55:23.260Z,0.40
2018-06-08T04:57:50.854Z,0.30
2018-06-08T05:00:18.629Z,0.30
2018-06-08T05:02:46.612Z,0.15
2018-06-08T05:05:14.376Z,0.30
2018-06-08T05:10:09.385Z,0.10
2018-06-08T05:17:31.494Z,0.15
2018-06-08T05:22:26.283Z,0.40
2018-06-08T05:24:54.358Z,0.30
2018-06-08T05:32:16.609Z,0.20
2018-06-08T05:42:05.898Z,0.40
2018-06-08T06:06:38.117Z,0.30
2018-06-08T06:09:07.933Z,0.20
2018-06-08T06:18:57.406Z,0.10
2018-06-08T06:23:52.747Z,0.10
2018-06-08T06:26:20.415Z,0.10
2018-06-08T06:28:48.329Z,0.20
2018-06-08T06:31:16.258Z,0.30
2018-06-08T06:45:59.899Z,0.40
2018-06-08T07:05:38.052Z,0.20
2018-06-08T07:17:54.863Z,0.20
2018-06-08T07:25:17.142Z,0.20
2018-06-08T07:27:44.898Z,0.10
2018-06-08T07:30:12.680Z,0.20
2018-06-08T07:35:07.508Z,0.10
2018-06-08T07:37:35.327Z,0.40
2018-06-08T07:40:03.097Z,0.20
2018-06-08T07:42:30.887Z,0.40
2018-06-08T07:44:58.599Z,0.20
2018-06-08T08:38:57.733Z,0.20
2018-06-08T08:41:25.467Z,0.20
2018-06-08T08:43:53.456Z,0.20
2018-06-08T08:46:21.231Z,0.30
2018-06-08T08:48:49.145Z,0.30
2018-06-08T08:51:17.157Z,0.30
2018-06-08T08:53:44.810Z,0.10
2018-06-08T08:56:12.613Z,0.30
2018-06-08T08:58:40.470Z,0.30
2018-06-08T09:01:08.175Z,0.37
2018-06-08T09:03:35.927Z,0.53
2018-06-08T09:06:04.169Z,0.30
2018-06-08T09:08:31.822Z,0.73
2018-06-08T09:10:59.556Z,0.20
2018-06-08T09:13:27.471Z,0.10
2018-06-08T09:15:55.208Z,0.23
2018-06-08T09:18:23.111Z,0.40
2018-06-08T09:20:51.191Z,0.20
2018-06-08T09:23:18.870Z,0.33
2018-06-08T09:25:46.627Z,0.33
2018-06-08T09:28:14.802Z,0.40
2018-06-08T09:30:42.515Z,0.30
2018-06-08T09:33:10.646Z,0.27
2018-06-08T09:35:38.508Z,0.20
2018-06-08T09:38:06.237Z,0.10
2018-06-08T09:40:33.961Z,0.17
2018-06-08T09:43:02.025Z,0.37
2018-06-08T09:45:32.628Z,0.33
2018-06-08T09:48:00.423Z,0.20
2018-06-08T09:50:28.610Z,0.50
2018-06-08T09:52:56.281Z,0.17
2018-06-08T09:55:24.090Z,0.23
2018-06-08T09:57:52.097Z,0.10
2018-06-08T10:00:51.589Z,0.20
2018-06-08T10:03:19.612Z,0.40
2018-06-08T10:05:47.203Z,0.20
2018-06-08T10:08:14.960Z,0.23
2018-06-08T10:10:42.850Z,0.30
2018-06-08T10:13:10.487Z,0.20
2018-06-08T10:15:38.223Z,0.30
2018-06-08T10:18:06.231Z,0.23
2018-06-08T10:20:33.956Z,0.50
2018-06-08T10:23:01.859Z,0.20
2018-06-08T10:25:29.858Z,0.10
2018-06-08T10:27:57.517Z,0.30
2018-06-08T10:30:25.472Z,0.20
2018-06-08T10:32:53.517Z,0.20
2018-06-08T10:35:21.253Z,0.33
2018-06-08T10:37:49.099Z,0.17
2018-06-08T10:40:17.080Z,0.30
2018-06-08T10:42:44.745Z,0.40
2018-06-08T10:45:12.602Z,0.30
2018-06-08T10:47:40.682Z,0.17
2018-06-08T10:50:08.398Z,0.30
2018-06-08T10:52:36.163Z,0.20
2018-06-08T10:55:04.319Z,0.30
2018-06-08T10:57:31.987Z,0.27
2018-06-08T10:59:59.755Z,0.20
2018-06-08T11:02:27.871Z,0.40
2018-06-08T11:04:55.518Z,0.20
2018-06-08T11:07:23.443Z,0.40
2018-06-08T11:09:51.523Z,0.25
2018-06-08T11:12:19.214Z,0.20
2018-06-08T11:14:47.034Z,0.30
2018-06-08T11:17:14.940Z,0.30
2018-06-08T11:27:04.257Z,0.30
2018-06-08T11:29:32.247Z,0.30
2018-06-08T11:32:00.233Z,0.30
2018-06-08T11:34:27.966Z,0.33
2018-06-08T11:36:55.794Z,0.30
2018-06-08T11:39:23.737Z,0.20
2018-06-08T11:41:51.382Z,0.30
2018-06-08T11:44:19.279Z,0.30
2018-06-08T11:46:47.301Z,0.20
2018-06-08T11:49:14.938Z,0.30
2018-06-08T11:51:42.931Z,0.30
2018-06-08T11:54:10.996Z,0.10
2018-06-08T11:56:38.658Z,0.23
2018-06-08T11:59:06.578Z,0.20
2018-06-08T12:01:34.517Z,0.13
2018-06-08T12:04:02.212Z,0.30
2018-06-08T12:06:30.037Z,0.30
2018-06-08T12:08:58.116Z,0.10
2018-06-08T12:11:25.795Z,0.20
2018-06-08T12:13:53.510Z,0.20
2018-06-08T12:16:21.434Z,0.40
2018-06-08T12:18:49.170Z,0.20
2018-06-08T12:21:16.876Z,0.40
2018-06-08T12:23:44.644Z,0.30
2018-06-08T12:26:12.325Z,0.20
2018-06-08T12:28:40.004Z,0.20
2018-06-08T12:31:08.960Z,0.20
2018-06-08T12:33:36.601Z,0.17
2018-06-08T12:36:04.372Z,0.30
2018-06-08T12:38:32.195Z,0.23
2018-06-08T12:40:59.863Z,0.30
2018-06-08T12:43:27.784Z,0.33
2018-06-08T12:45:55.750Z,0.30
2018-06-08T12:48:23.415Z,0.30
2018-06-08T12:50:51.256Z,0.40
2018-06-08T12:53:19.239Z,0.30
2018-06-08T12:55:46.868Z,0.30
2018-06-08T12:58:14.540Z,0.30
2018-06-08T13:00:42.515Z,0.20
2018-06-08T13:03:10.172Z,0.10
2018-06-08T13:05:37.983Z,0.20
2018-06-08T13:08:05.861Z,0.30
2018-06-08T13:10:33.432Z,0.20
2018-06-08T13:13:01.253Z,0.43
2018-06-08T13:15:29.191Z,0.50
2018-06-08T13:17:56.888Z,0.27
2018-06-08T13:20:24.711Z,0.30
2018-06-08T13:22:52.702Z,0.30
2018-06-08T13:25:20.356Z,0.50
2018-06-08T13:27:49.112Z,0.20
2018-06-08T13:30:17.067Z,0.20
2018-06-08T13:32:44.677Z,0.27
2018-06-08T13:35:12.555Z,0.20
2018-06-08T13:37:40.594Z,0.20
2018-06-08T13:40:08.233Z,0.30
2018-06-08T13:42:36.032Z,0.30
2018-06-08T13:45:04.330Z,0.30
2018-06-08T13:47:32.032Z,0.20
2018-06-08T13:49:59.830Z,0.20
2018-06-08T13:52:27.773Z,0.20
2018-06-08T13:54:55.381Z,0.20
2018-06-08T13:57:23.104Z,0.50
2018-06-08T13:59:51.010Z,0.27
2018-06-08T14:02:18.641Z,0.30
2018-06-08T14:04:46.450Z,0.20
2018-06-08T14:07:15.851Z,0.30
2018-06-08T14:09:43.510Z,0.37
2018-06-08T14:12:11.357Z,0.30
2018-06-08T14:14:39.198Z,0.37
2018-06-08T14:17:06.863Z,0.80
2018-06-08T14:19:34.660Z,0.33
2018-06-08T14:22:02.472Z,0.30
2018-06-08T14:24:30.140Z,0.30
2018-06-08T14:26:57.864Z,0.23
2018-06-08T14:29:25.812Z,0.20
2018-06-08T14:31:53.411Z,0.40
2018-06-08T14:34:21.114Z,0.30
2018-06-08T14:36:49.014Z,0.30
2018-06-08T14:39:16.753Z,0.30
2018-06-08T14:41:44.456Z,0.30
2018-06-08T14:44:12.219Z,0.30
2018-06-08T14:46:39.869Z,0.40
2018-06-08T14:49:22.361Z,0.43
2018-06-08T14:51:50.207Z,0.20
2018-06-08T14:54:17.862Z,0.30
2018-06-08T14:56:45.874Z,0.40
2018-06-08T14:59:13.527Z,0.40
2018-06-08T15:01:41.144Z,0.30
2018-06-08T15:04:09.036Z,0.37
2018-06-08T15:06:36.799Z,0.30
2018-06-08T15:09:06.366Z,0.30
2018-06-08T15:11:34.365Z,0.20
2018-06-08T15:14:02.699Z,0.30
2018-06-08T15:16:30.387Z,0.30
2018-06-08T15:18:58.432Z,0.60
2018-06-08T15:21:26.150Z,0.57
2018-06-08T15:23:53.775Z,0.43
2018-06-08T15:26:21.572Z,0.30
2018-06-08T15:28:49.327Z,0.30
2018-06-08T15:31:16.914Z,0.40
2018-06-08T15:33:44.744Z,0.20
2018-06-08T15:36:12.523Z,0.50
2018-06-08T15:38:40.154Z,0.40
2018-06-08T15:41:08.141Z,0.30
2018-06-08T15:43:35.840Z,0.40
2018-06-08T15:46:03.493Z,0.40
2018-06-08T15:48:31.518Z,0.30
2018-06-08T15:50:59.345Z,0.30
2018-06-08T15:53:26.902Z,0.40
2018-06-08T15:55:54.874Z,0.27
2018-06-08T15:58:22.579Z,0.30
2018-06-08T16:00:50.242Z,0.30
2018-06-08T16:03:18.154Z,0.40
2018-06-08T16:05:46.096Z,0.30
2018-06-08T16:08:13.737Z,0.30
2018-06-08T16:10:41.681Z,0.20
2018-06-08T16:13:09.527Z,0.30
2018-06-08T16:15:37.142Z,0.40
2018-06-08T16:18:05.056Z,0.40
2018-06-08T16:20:32.812Z,0.30
2018-06-08T16:23:00.429Z,0.20
2018-06-08T16:25:28.397Z,0.53
2018-06-08T16:27:55.964Z,0.30
2018-06-08T16:30:23.572Z,0.30
2018-06-08T16:32:51.511Z,0.40
2018-06-08T16:35:19.302Z,0.40
2018-06-08T16:37:47.000Z,0.30
2018-06-08T16:40:14.789Z,0.23
2018-06-08T16:42:42.584Z,0.40
2018-06-08T16:57:26.042Z,0.30
2018-06-08T17:02:20.961Z,0.20
2018-06-08T17:09:42.933Z,0.30
2018-06-08T17:17:05.261Z,0.40
2018-06-08T17:24:27.456Z,0.30
2018-06-08T18:08:37.004Z,0.10
2018-06-08T18:13:31.714Z,0.30
2018-06-08T18:15:59.867Z,0.20
2018-06-08T18:18:27.627Z,0.30
2018-06-08T18:20:55.294Z,0.30
2018-06-08T18:23:23.220Z,0.33
2018-06-08T18:25:51.041Z,0.50
2018-06-08T18:28:18.679Z,0.40
2018-06-08T18:30:46.538Z,0.50
2018-06-08T18:33:14.471Z,0.30
2018-06-08T18:35:42.023Z,0.30
2018-06-08T18:38:10.027Z,0.40
2018-06-08T18:40:37.744Z,0.20
2018-06-08T18:43:05.400Z,0.40
2018-06-08T18:45:33.319Z,0.20
2018-06-08T18:48:01.157Z,0.20
2018-06-08T18:50:28.752Z,0.40
2018-06-08T18:52:56.954Z,0.40
2018-06-08T18:55:24.794Z,0.40
2018-06-08T18:57:52.438Z,0.50
2018-06-08T19:00:20.348Z,0.30
2018-06-08T19:02:48.261Z,0.47
2018-06-08T19:05:15.881Z,0.40
2018-06-08T19:07:43.750Z,0.30
2018-06-08T19:10:11.418Z,0.40
2018-06-08T19:12:39.082Z,0.27
2018-06-08T19:15:06.919Z,0.30
2018-06-08T19:17:34.817Z,0.40
2018-06-08T19:20:02.479Z,0.30
2018-06-08T19:22:30.377Z,0.30
2018-06-08T19:24:58.128Z,0.47
2018-06-08T19:27:25.787Z,0.40
2018-06-08T19:29:53.683Z,0.50
2018-06-08T19:32:21.471Z,0.50
2018-06-08T19:34:49.136Z,0.40
2018-06-08T19:37:17.006Z,0.30
2018-06-08T19:39:44.745Z,0.40
2018-06-08T19:42:12.449Z,0.40
2018-06-08T19:44:40.348Z,0.40
2018-06-08T19:47:08.290Z,0.30
2018-06-08T19:49:36.303Z,0.50
2018-06-08T19:52:04.628Z,0.30
2018-06-08T19:54:32.347Z,0.20
2018-06-08T19:57:00.098Z,0.20
2018-06-08T19:59:28.097Z,0.20
2018-06-08T20:01:55.820Z,0.40
2018-06-08T20:04:23.556Z,0.40
2018-06-08T20:06:51.763Z,0.37
2018-06-08T20:09:19.457Z,0.17
2018-06-08T20:11:47.089Z,0.30
2018-06-08T20:14:15.135Z,0.37
2018-06-08T20:16:42.790Z,0.40
2018-06-08T20:19:10.409Z,0.50
2018-06-08T20:21:38.577Z,0.30
2018-06-08T20:24:06.459Z,0.33
2018-06-08T20:26:34.154Z,0.30
2018-06-08T20:29:02.366Z,0.40
2018-06-08T20:31:30.060Z,0.30
2018-06-08T20:33:57.735Z,0.50
2018-06-08T20:36:25.604Z,0.30
2018-06-08T20:38:53.307Z,0.33
2018-06-08T20:41:20.880Z,0.37
2018-06-08T20:43:49.092Z,0.57
2018-06-08T20:46:16.802Z,0.43
2018-06-08T20:48:44.427Z,0.30
2018-06-08T20:51:12.531Z,0.40
2018-06-08T20:53:40.145Z,0.43
2018-06-08T20:56:07.793Z,0.40
2018-06-08T20:58:35.979Z,0.43
2018-06-08T21:01:03.681Z,0.30
2018-06-08T21:03:31.377Z,0.23
2018-06-08T21:05:59.447Z,0.40
2018-06-08T21:08:27.126Z,0.20
2018-06-08T21:10:54.762Z,0.50
2018-06-08T21:13:22.626Z,0.30
2018-06-08T21:15:50.335Z,0.30
2018-06-08T21:18:18.058Z,0.40
2018-06-08T21:20:45.949Z,0.30
2018-06-08T21:23:13.851Z,0.40
2018-06-08T21:25:41.506Z,0.50
2018-06-08T21:28:09.405Z,0.50
2018-06-08T21:30:37.158Z,0.20
2018-06-08T21:33:04.853Z,0.40
2018-06-08T21:35:32.725Z,0.40
2018-06-08T21:38:00.374Z,0.27
2018-06-08T21:40:28.006Z,0.43
2018-06-08T21:42:56.082Z,0.30
2018-06-08T21:45:23.716Z,0.50
2018-06-08T21:47:51.751Z,0.40
2018-06-08T21:50:20.676Z,0.40
2018-06-08T21:52:48.442Z,0.40
2018-06-08T21:55:16.161Z,0.47
2018-06-08T21:57:44.596Z,0.30
2018-06-08T22:00:12.973Z,0.40
2018-06-08T22:02:40.527Z,0.40
2018-06-08T22:05:08.414Z,0.60
2018-06-08T22:07:36.089Z,0.20
2018-06-08T22:10:03.973Z,0.47
2018-06-08T22:12:31.970Z,0.47
2018-06-08T22:14:59.590Z,0.50
2018-06-08T22:17:27.306Z,0.30
2018-06-08T22:19:55.460Z,0.60
2018-06-08T22:22:23.092Z,0.50
2018-06-08T22:24:50.750Z,0.37
2018-06-08T22:27:18.962Z,0.30
2018-06-08T22:29:46.624Z,0.30
2018-06-08T22:32:14.257Z,0.50
2018-06-08T22:34:42.249Z,0.40
2018-06-08T22:37:09.874Z,0.47
2018-06-08T22:39:37.572Z,0.33
2018-06-08T22:42:05.484Z,0.30
2018-06-08T22:44:33.124Z,0.40
2018-06-08T22:47:00.784Z,0.40
2018-06-08T22:49:28.729Z,0.53
2018-06-08T22:51:56.296Z,0.37
2018-06-08T22:54:23.984Z,0.43
2018-06-08T22:56:52.129Z,0.33
2018-06-08T22:59:19.850Z,0.40
2018-06-08T23:01:47.475Z,0.50
2018-06-08T23:04:15.741Z,0.30
2018-06-08T23:06:43.361Z,0.33
2018-06-08T23:09:11.013Z,0.57
2018-06-08T23:11:39.324Z,0.40
2018-06-08T23:14:07.001Z,0.40
2018-06-08T23:16:34.663Z,0.50
2018-06-08T23:19:02.840Z,0.50
2018-06-08T23:21:30.558Z,0.30
2018-06-08T23:23:58.184Z,0.30
2018-06-08T23:26:26.323Z,0.40
2018-06-08T23:28:53.986Z,0.40
2018-06-08T23:31:21.661Z,0.33
2018-06-08T23:33:49.918Z,0.50
2018-06-08T23:36:17.574Z,0.30
2018-06-08T23:38:45.150Z,0.50
2018-06-08T23:41:13.157Z,0.60
2018-06-08T23:43:40.852Z,0.30
2018-06-08T23:46:09.644Z,0.40
2018-06-08T23:48:37.499Z,0.60
2018-06-08T23:51:05.186Z,0.60
2018-06-08T23:53:32.802Z,0.50
2018-06-08T23:56:00.791Z,0.30
2018-06-08T23:58:28.392Z,0.47
